Time;durP1;ratioP1;P1;durP2;ratioP2;P2;SDS_P1;SDS_P2;PMS_P1;PMS_P2;Temp;Humidity;BMP_temperature;BMP_pressure;BME280_temperature;BME280_humidity;BME280_pressure;Samples;Min_cycle;Max_cycle;Signal;HPM_P1;HPM_P2
2021/04/27 00:01:22;;;;;;;;;;;;;;;;;;4949469;28;19934;-65
2021/04/27 00:03:48;;;;;;;;;;;;;;;;;;4944049;28;19970;-66
2021/04/27 00:06:15;;;;;;;;;;;;;;;;;;4948799;28;20022;-65
2021/04/27 00:08:41;;;;;;;;;;;;;;;;;;4950364;28;20386;-65
2021/04/27 00:11:07;;;;;;;;;;;;;;;;;;4948341;28;20309;-66
2021/04/27 00:13:34;;;;;;;;;;;;;;;;;;4942701;29;19930;-66
2021/04/27 00:16:00;;;;;;;;;;;;;;;;;;4937310;28;19977;-66
2021/04/27 00:18:27;;;;;;;;;;;;;;;;;;4950652;28;19949;-66
2021/04/27 00:20:53;;;;;;;;;;;;;;;;;;4950527;28;20419;-66
2021/04/27 00:23:20;;;;;;;;;;;;;;;;;;4942523;28;19930;-66
2021/04/27 00:25:46;;;;;;;;;;;;;;;;;;4942210;28;19938;-66
2021/04/27 00:28:13;;;;;;;;;;;;;;;;;;4940684;28;19927;-66
2021/04/27 00:30:39;;;;;;;;;;;;;;;;;;4942250;28;19926;-66
2021/04/27 00:33:06;;;;;;;;;;;;;;;;;;4948191;28;19935;-66
2021/04/27 00:35:32;;;;;;;;;;;;;;;;;;4950167;28;19926;-68
2021/04/27 00:37:59;;;;;;;;;;;;;;;;;;4947307;28;19988;-66
2021/04/27 00:40:26;;;;;;;;;;;;;;;;;;4938845;28;19945;-66
2021/04/27 00:42:53;;;;;;;;;;;;;;;;;;4945130;28;19926;-66
2021/04/27 00:45:19;;;;;;;;;;;;;;;;;;4947256;28;19926;-66
2021/04/27 00:47:48;;;;;;;;;;;;;;;;;;4948585;28;19927;-66
2021/04/27 00:50:14;;;;;;;;;;;;;;;;;;4943271;29;20899;-67
2021/04/27 00:52:41;;;;;;;;;;;;;;;;;;4938630;28;19969;-66
2021/04/27 00:55:07;;;;;;;;;;;;;;;;;;4937980;28;20409;-66
2021/04/27 00:57:34;;;;;;;;;;;;;;;;;;4935333;28;19941;-67
2021/04/27 01:00:00;;;;;;;;;;;;;;;;;;4948363;28;19927;-67
2021/04/27 01:02:27;;;;;;;;;;;;;;;;;;4949229;28;19934;-67
2021/04/27 01:04:53;;;;;;;;;;;;;;;;;;4954269;28;20283;-66
2021/04/27 01:07:20;;;;;;;;;;;;;;;;;;4945420;28;19933;-66
2021/04/27 01:09:46;;;;;;;;;;;;;;;;;;4953935;28;19941;-66
2021/04/27 01:12:13;;;;;;;;;;;;;;;;;;4947732;28;20170;-67
2021/04/27 01:14:39;;;;;;;;;;;;;;;;;;4947330;28;19926;-66
2021/04/27 01:17:06;;;;;;;;;;;;;;;;;;4943834;28;19957;-66
2021/04/27 01:19:32;;;;;;;;;;;;;;;;;;4937727;28;19931;-67
2021/04/27 01:21:59;;;;;;;;;;;;;;;;;;4944162;28;20429;-66
2021/04/27 01:24:25;;;;;;;;;;;;;;;;;;4948629;28;20405;-66
2021/04/27 01:26:52;;;;;;;;;;;;;;;;;;4947879;28;19930;-66
2021/04/27 01:29:18;;;;;;;;;;;;;;;;;;4946078;28;20282;-67
2021/04/27 01:31:45;;;;;;;;;;;;;;;;;;4948863;28;19927;-66
2021/04/27 01:34:14;;;;;;;;;;;;;;;;;;4943062;28;19934;-66
2021/04/27 01:36:40;;;;;;;;;;;;;;;;;;4944934;28;19926;-66
2021/04/27 01:39:07;;;;;;;;;;;;;;;;;;4944305;28;20394;-66
2021/04/27 01:41:33;;;;;;;;;;;;;;;;;;4940257;28;19927;-66
2021/04/27 01:44:00;;;;;;;;;;;;;;;;;;4939745;28;19927;-66
2021/04/27 01:46:26;;;;;;;;;;;;;;;;;;4940673;28;19926;-66
2021/04/27 01:48:53;;;;;;;;;;;;;;;;;;4946675;28;20318;-66
2021/04/27 01:51:19;;;;;;;;;;;;;;;;;;4949493;28;19956;-69
2021/04/27 01:53:46;;;;;;;;;;;;;;;;;;4949400;28;20424;-66
2021/04/27 01:56:12;;;;;;;;;;;;;;;;;;4937285;28;19978;-65
2021/04/27 01:58:39;;;;;;;;;;;;;;;;;;4944047;28;20017;-66
2021/04/27 02:01:05;;;;;;;;;;;;;;;;;;4948266;28;19927;-66
2021/04/27 02:03:31;;;;;;;;;;;;;;;;;;4949377;28;19933;-66
2021/04/27 02:05:58;;;;;;;;;;;;;;;;;;4944339;28;19927;-68
2021/04/27 02:08:24;;;;;;;;;;;;;;;;;;4946771;28;20313;-66
2021/04/27 02:10:51;;;;;;;;;;;;;;;;;;4949757;28;19936;-66
2021/04/27 02:13:17;;;;;;;;;;;;;;;;;;4939011;28;19927;-66
2021/04/27 02:15:45;;;;;;;;;;;;;;;;;;4941733;28;19931;-67
2021/04/27 02:18:12;;;;;;;;;;;;;;;;;;4937166;28;19927;-66
2021/04/27 02:20:38;;;;;;;;;;;;;;;;;;4943528;28;20030;-66
2021/04/27 02:23:04;;;;;;;;;;;;;;;;;;4947152;28;19934;-66
2021/04/27 02:25:31;;;;;;;;;;;;;;;;;;4942541;28;19930;-67
2021/04/27 02:27:57;;;;;;;;;;;;;;;;;;4943852;28;19926;-67
2021/04/27 02:30:24;;;;;;;;;;;;;;;;;;4944205;28;19937;-65
2021/04/27 02:32:50;;;;;;;;;;;;;;;;;;4944690;28;19943;-65
2021/04/27 02:35:17;;;;;;;;;;;;;;;;;;4944606;28;19931;-65
2021/04/27 02:37:43;;;;;;;;;;;;;;;;;;4941208;28;19927;-65
2021/04/27 02:40:10;;;;;;;;;;;;;;;;;;4936844;28;19980;-65
2021/04/27 02:42:36;;;;;;;;;;;;;;;;;;4942426;28;19934;-65
2021/04/27 02:45:03;;;;;;;;;;;;;;;;;;4937180;28;19948;-65
2021/04/27 02:47:29;;;;;;;;;;;;;;;;;;4951710;28;19927;-66
2021/04/27 02:49:56;;;;;;;;;;;;;;;;;;4947641;28;19927;-66
2021/04/27 02:52:22;;;;;;;;;;;;;;;;;;4952568;28;19984;-66
2021/04/27 02:54:49;;;;;;;;;;;;;;;;;;4952503;28;19927;-66
2021/04/27 02:57:15;;;;;;;;;;;;;;;;;;4947627;28;19934;-66
2021/04/27 02:59:41;;;;;;;;;;;;;;;;;;4951994;28;20025;-66
2021/04/27 03:02:08;;;;;;;;;;;;;;;;;;4951670;28;19930;-66
2021/04/27 03:04:34;;;;;;;;;;;;;;;;;;4949479;28;20025;-66
2021/04/27 03:07:01;;;;;;;;;;;;;;;;;;4949190;28;19937;-67
2021/04/27 03:09:27;;;;;;;;;;;;;;;;;;4948031;28;20028;-66
2021/04/27 03:11:54;;;;;;;;;;;;;;;;;;4945007;28;19931;-68
2021/04/27 03:14:20;;;;;;;;;;;;;;;;;;4942163;28;20417;-66
2021/04/27 03:16:47;;;;;;;;;;;;;;;;;;4942401;28;19927;-67
2021/04/27 03:19:13;;;;;;;;;;;;;;;;;;4949123;28;20113;-66
2021/04/27 03:21:40;;;;;;;;;;;;;;;;;;4949803;28;19930;-66
2021/04/27 03:24:06;;;;;;;;;;;;;;;;;;4936648;28;19931;-66
2021/04/27 03:26:33;;;;;;;;;;;;;;;;;;4948099;28;19927;-65
2021/04/27 03:28:59;;;;;;;;;;;;;;;;;;4946736;28;19933;-66
2021/04/27 03:31:26;;;;;;;;;;;;;;;;;;4945518;28;20385;-66
2021/04/27 03:33:53;;;;;;;;;;;;;;;;;;4940955;28;19931;-67
2021/04/27 03:36:19;;;;;;;;;;;;;;;;;;4941073;28;20012;-66
2021/04/27 03:38:46;;;;;;;;;;;;;;;;;;4948175;28;19972;-66
2021/04/27 03:41:12;;;;;;;;;;;;;;;;;;4945733;28;20364;-66
2021/04/27 03:43:39;;;;;;;;;;;;;;;;;;4951278;28;19979;-67
2021/04/27 03:46:05;;;;;;;;;;;;;;;;;;4942220;28;19969;-66
2021/04/27 03:48:32;;;;;;;;;;;;;;;;;;4949256;28;19957;-67
2021/04/27 03:50:58;;;;;;;;;;;;;;;;;;4950253;28;19926;-66
2021/04/27 03:53:25;;;;;;;;;;;;;;;;;;4942024;28;20374;-66
2021/04/27 03:55:51;;;;;;;;;;;;;;;;;;4938059;28;19930;-67
2021/04/27 03:58:18;;;;;;;;;;;;;;;;;;4939943;28;19965;-66
2021/04/27 04:00:44;;;;;;;;;;;;;;;;;;4943526;28;19931;-67
2021/04/27 04:03:11;;;;;;;;;;;;;;;;;;4936880;28;19933;-66
2021/04/27 04:05:37;;;;;;;;;;;;;;;;;;4935697;28;19962;-68
2021/04/27 04:08:04;;;;;;;;;;;;;;;;;;4941537;28;19931;-67
2021/04/27 04:10:30;;;;;;;;;;;;;;;;;;4945948;28;19934;-66
2021/04/27 04:12:56;;;;;;;;;;;;;;;;;;4948853;28;20316;-66
2021/04/27 04:15:23;;;;;;;;;;;;;;;;;;4943799;28;19933;-66
2021/04/27 04:17:49;;;;;;;;;;;;;;;;;;4946966;28;20631;-66
2021/04/27 04:20:16;;;;;;;;;;;;;;;;;;4999297;22;19925;-66
2021/04/27 04:22:42;;;;;;;;;;;;;;;;;;5039566;28;20355;-66
2021/04/27 04:25:09;;;;;;;;;;;;;;;;;;5033857;28;19932;-66
2021/04/27 04:27:35;;;;;;;;;;;;;;;;;;5038596;28;20417;-67
2021/04/27 04:30:02;;;;;;;;;;;;;;;;;;5032996;28;19929;-66
2021/04/27 04:32:28;;;;;;;;;;;;;;;;;;5033039;28;20019;-67
2021/04/27 04:34:55;;;;;;;;;;;;;;;;;;5039851;28;20601;-65
2021/04/27 04:37:21;;;;;;;;;;;;;;;;;;5036808;28;20165;-66
2021/04/27 04:39:48;;;;;;;;;;;;;;;;;;5039230;28;19925;-65
2021/04/27 04:42:15;;;;;;;;;;;;;;;;;;5035423;28;19936;-65
2021/04/27 04:44:42;;;;;;;;;;;;;;;;;;5036705;28;19932;-65
2021/04/27 04:47:08;;;;;;;;;;;;;;;;;;5041027;28;19929;-65
2021/04/27 04:49:35;;;;;;;;;;;;;;;;;;5046248;28;19978;-67
2021/04/27 04:52:01;;;;;;;;;;;;;;;;;;5045876;28;20241;-64
2021/04/27 04:54:28;;;;;;;;;;;;;;;;;;5029646;28;19934;-67
2021/04/27 04:56:54;;;;;;;;;;;;;;;;;;5052096;28;19967;-65
2021/04/27 04:59:22;;;;;;;;;;;;;;;;;;5050483;28;19932;-65
2021/04/27 05:01:48;;;;;;;;;;;;;;;;;;5050841;28;19925;-66
2021/04/27 05:04:14;;;;;;;;;;;;;;;;;;5036703;28;20302;-66
2021/04/27 05:06:43;;;;;;;;;;;;;;;;;;5041120;28;19933;-66
2021/04/27 05:09:09;;;;;;;;;;;;;;;;;;5047878;28;19969;-66
2021/04/27 05:11:39;;;;;;;;;;;;;;;;;;5049458;28;20269;-66
2021/04/27 05:14:05;;;;;;;;;;;;;;;;;;5043934;28;20300;-66
2021/04/27 05:16:32;;;;;;;;;;;;;;;;;;5048506;28;19925;-67
2021/04/27 05:18:58;;;;;;;;;;;;;;;;;;5042516;28;20035;-66
2021/04/27 05:21:25;;;;;;;;;;;;;;;;;;5045941;28;19943;-67
2021/04/27 05:23:51;;;;;;;;;;;;;;;;;;5042014;28;19925;-66
2021/04/27 05:26:18;;;;;;;;;;;;;;;;;;5045632;28;20016;-66
2021/04/27 05:28:44;;;;;;;;;;;;;;;;;;5042687;28;20007;-65
2021/04/27 05:31:11;;;;;;;;;;;;;;;;;;5044603;28;20367;-66
2021/04/27 05:33:37;;;;;;;;;;;;;;;;;;5040008;28;19925;-66
2021/04/27 05:36:04;;;;;;;;;;;;;;;;;;5038426;28;19928;-68
2021/04/27 05:38:30;;;;;;;;;;;;;;;;;;5043581;28;19947;-67
2021/04/27 05:40:57;;;;;;;;;;;;;;;;;;5046222;28;20023;-66
2021/04/27 05:43:23;;;;;;;;;;;;;;;;;;5038004;28;20023;-67
2021/04/27 05:45:50;;;;;;;;;;;;;;;;;;5040579;28;20039;-68
2021/04/27 05:48:16;;;;;;;;;;;;;;;;;;5041128;28;20403;-66
2021/04/27 05:50:44;;;;;;;;;;;;;;;;;;5050456;28;19931;-65
2021/04/27 05:53:11;;;;;;;;;;;;;;;;;;5039639;28;19924;-65
2021/04/27 05:55:40;;;;;;;;;;;;;;;;;;5043665;28;19925;-65
2021/04/27 05:58:06;;;;;;;;;;;;;;;;;;5044848;28;19971;-66
2021/04/27 06:00:33;;;;;;;;;;;;;;;;;;5041433;28;20019;-68
2021/04/27 06:03:00;;;;;;;;;;;;;;;;;;5043513;28;19932;-66
2021/04/27 06:05:26;;;;;;;;;;;;;;;;;;5036823;28;20010;-68
2021/04/27 06:07:53;;;;;;;;;;;;;;;;;;5042109;28;20019;-66
2021/04/27 06:10:19;;;;;;;;;;;;;;;;;;5044703;28;20367;-67
2021/04/27 06:12:46;;;;;;;;;;;;;;;;;;5037276;28;19933;-67
2021/04/27 06:15:13;;;;;;;;;;;;;;;;;;5040292;28;19932;-66
2021/04/27 06:17:39;;;;;;;;;;;;;;;;;;5037161;28;19931;-67
2021/04/27 06:20:06;;;;;;;;;;;;;;;;;;5039965;28;19925;-66
2021/04/27 06:22:32;;;;;;;;;;;;;;;;;;5043817;28;20367;-66
2021/04/27 06:24:59;;;;;;;;;;;;;;;;;;5044547;28;20397;-66
2021/04/27 06:27:28;;;;;;;;;;;;;;;;;;5046765;28;20312;-68
2021/04/27 06:29:55;;;;;;;;;;;;;;;;;;5048459;28;20011;-64
2021/04/27 06:32:21;;;;;;;;;;;;;;;;;;5051655;28;19933;-64
2021/04/27 06:34:48;;;;;;;;;;;;;;;;;;5051211;28;19931;-65
2021/04/27 06:37:14;;;;;;;;;;;;;;;;;;5046219;28;19932;-65
2021/04/27 06:39:40;;;;;;;;;;;;;;;;;;5054170;28;19925;-66
2021/04/27 06:42:07;;;;;;;;;;;;;;;;;;5045692;28;20314;-65
2021/04/27 06:44:33;;;;;;;;;;;;;;;;;;5040297;28;19928;-67
2021/04/27 06:47:00;;;;;;;;;;;;;;;;;;5042309;28;20359;-67
2021/04/27 06:49:27;;;;;;;;;;;;;;;;;;5048060;28;19987;-66
2021/04/27 06:51:53;;;;;;;;;;;;;;;;;;5049973;28;19929;-66
2021/04/27 06:54:20;;;;;;;;;;;;;;;;;;5052485;28;20427;-66
2021/04/27 06:56:46;;;;;;;;;;;;;;;;;;5049125;28;19947;-67
2021/04/27 06:59:15;;;;;;;;;;;;;;;;;;5047184;28;19933;-66
2021/04/27 07:01:44;;;;;;;;;;;;;;;;;;5051292;28;19924;-66
2021/04/27 07:04:13;;;;;;;;;;;;;;;;;;5052242;28;20015;-67
2021/04/27 07:06:40;;;;;;;;;;;;;;;;;;5047338;28;19929;-66
2021/04/27 07:09:06;;;;;;;;;;;;;;;;;;5052586;28;19935;-65
2021/04/27 07:11:33;;;;;;;;;;;;;;;;;;5056648;28;19925;-67
2021/04/27 07:13:59;;;;;;;;;;;;;;;;;;5051525;28;20020;-66
2021/04/27 07:16:26;;;;;;;;;;;;;;;;;;5052286;28;19924;-66
2021/04/27 07:18:52;;;;;;;;;;;;;;;;;;5047376;28;20262;-66
2021/04/27 07:21:20;;;;;;;;;;;;;;;;;;5051979;28;19996;-66
2021/04/27 07:23:46;;;;;;;;;;;;;;;;;;5053606;28;19955;-66
2021/04/27 07:26:13;;;;;;;;;;;;;;;;;;5052117;28;19935;-66
2021/04/27 07:28:39;;;;;;;;;;;;;;;;;;5047222;28;20355;-66
2021/04/27 07:31:06;;;;;;;;;;;;;;;;;;5052626;28;19925;-65
2021/04/27 07:33:32;;;;;;;;;;;;;;;;;;5049178;28;20347;-67
2021/04/27 07:35:59;;;;;;;;;;;;;;;;;;5052818;28;19929;-67
2021/04/27 07:38:25;;;;;;;;;;;;;;;;;;5047584;28;20343;-67
2021/04/27 07:40:52;;;;;;;;;;;;;;;;;;5052550;28;19932;-66
2021/04/27 07:43:18;;;;;;;;;;;;;;;;;;5049420;28;19925;-65
2021/04/27 07:45:45;;;;;;;;;;;;;;;;;;5049340;28;19925;-65
2021/04/27 07:48:11;;;;;;;;;;;;;;;;;;5040113;28;19944;-66
2021/04/27 07:50:38;;;;;;;;;;;;;;;;;;5047018;28;19924;-66
2021/04/27 07:53:04;;;;;;;;;;;;;;;;;;5051236;28;19925;-66
2021/04/27 07:55:31;;;;;;;;;;;;;;;;;;5047813;28;19932;-66
2021/04/27 07:57:57;;;;;;;;;;;;;;;;;;5042313;28;19977;-67
2021/04/27 08:00:24;;;;;;;;;;;;;;;;;;5048451;28;19974;-66
2021/04/27 08:02:51;;;;;;;;;;;;;;;;;;5041137;28;19929;-67
2021/04/27 08:05:18;;;;;;;;;;;;;;;;;;5048697;28;19925;-67
2021/04/27 08:07:44;;;;;;;;;;;;;;;;;;5046269;28;19931;-67
2021/04/27 08:10:14;;;;;;;;;;;;;;;;;;5047181;28;19933;-67
2021/04/27 08:12:43;;;;;;;;;;;;;;;;;;5057738;28;19925;-66
2021/04/27 08:15:10;;;;;;;;;;;;;;;;;;5055876;28;19924;-66
2021/04/27 08:17:37;;;;;;;;;;;;;;;;;;5046529;28;19931;-66
2021/04/27 08:20:04;;;;;;;;;;;;;;;;;;5049521;28;20580;-66
2021/04/27 08:22:30;;;;;;;;;;;;;;;;;;5056737;28;19983;-67
2021/04/27 08:24:57;;;;;;;;;;;;;;;;;;5056209;28;20411;-66
2021/04/27 08:27:23;;;;;;;;;;;;;;;;;;5044903;28;19928;-66
2021/04/27 08:29:52;;;;;;;;;;;;;;;;;;5047684;28;19936;-67
2021/04/27 08:32:18;;;;;;;;;;;;;;;;;;5049166;28;19931;-67
2021/04/27 08:34:45;;;;;;;;;;;;;;;;;;5046600;28;20474;-67
2021/04/27 08:37:11;;;;;;;;;;;;;;;;;;5042469;28;19933;-67
2021/04/27 08:39:38;;;;;;;;;;;;;;;;;;5045230;28;19939;-67
2021/04/27 08:42:04;;;;;;;;;;;;;;;;;;5047634;28;20393;-67
2021/04/27 08:44:30;;;;;;;;;;;;;;;;;;5048167;28;20004;-67
2021/04/27 08:46:57;;;;;;;;;;;;;;;;;;5048877;28;19925;-66
2021/04/27 08:49:23;;;;;;;;;;;;;;;;;;5037357;28;19933;-66
2021/04/27 08:51:50;;;;;;;;;;;;;;;;;;5047287;28;19932;-65
2021/04/27 08:54:18;;;;;;;;;;;;;;;;;;5050205;28;19971;-65
2021/04/27 08:56:44;;;;;;;;;;;;;;;;;;5045998;28;19978;-66
2021/04/27 08:59:10;;;;;;;;;;;;;;;;;;5045111;28;19932;-66
2021/04/27 09:01:39;;;;;;;;;;;;;;;;;;5047598;28;19925;-65
2021/04/27 09:04:06;;;;;;;;;;;;;;;;;;5045612;28;20292;-65
2021/04/27 09:06:33;;;;;;;;;;;;;;;;;;5049402;28;20027;-66
2021/04/27 09:08:59;;;;;;;;;;;;;;;;;;5043465;28;19925;-66
2021/04/27 09:11:26;;;;;;;;;;;;;;;;;;5048659;28;19967;-65
2021/04/27 09:13:52;;;;;;;;;;;;;;;;;;5043615;28;19925;-65
2021/04/27 09:16:19;;;;;;;;;;;;;;;;;;5046044;28;20308;-65
2021/04/27 09:18:45;;;;;;;;;;;;;;;;;;5041908;28;19968;-65
2021/04/27 09:21:12;;;;;;;;;;;;;;;;;;5045507;28;19929;-64
2021/04/27 09:23:40;;;;;;;;;;;;;;;;;;5045379;28;19970;-65
2021/04/27 09:26:06;;;;;;;;;;;;;;;;;;5049274;28;19934;-64
2021/04/27 09:28:33;;;;;;;;;;;;;;;;;;5039220;28;19925;-65
2021/04/27 09:31:00;;;;;;;;;;;;;;;;;;5046446;28;19968;-65
2021/04/27 09:33:27;;;;;;;;;;;;;;;;;;5048207;28;19925;-65
2021/04/27 09:35:54;;;;;;;;;;;;;;;;;;5042442;28;19928;-65
2021/04/27 09:38:20;;;;;;;;;;;;;;;;;;5044140;28;19950;-65
2021/04/27 09:40:47;;;;;;;;;;;;;;;;;;5047438;28;19932;-65
2021/04/27 09:43:13;;;;;;;;;;;;;;;;;;5038091;28;19929;-64
2021/04/27 09:45:40;;;;;;;;;;;;;;;;;;5044842;28;20066;-66
2021/04/27 09:48:12;;;;;;;;;;;;;;;;;;5046896;28;19933;-65
2021/04/27 09:50:38;;;;;;;;;;;;;;;;;;5054076;28;19931;-65
2021/04/27 09:53:05;;;;;;;;;;;;;;;;;;5036524;28;20324;-64
2021/04/27 09:55:34;;;;;;;;;;;;;;;;;;5043587;28;19925;-65
2021/04/27 09:58:00;;;;;;;;;;;;;;;;;;5044795;28;19981;-64
2021/04/27 10:00:28;;;;;;;;;;;;;;;;;;5043239;28;20605;-66
2021/04/27 10:02:55;;;;;;;;;;;;;;;;;;5040004;28;19933;-66
2021/04/27 10:05:22;;;;;;;;;;;;;;;;;;5038874;28;19932;-66
2021/04/27 10:07:48;;;;;;;;;;;;;;;;;;5043269;28;19925;-65
2021/04/27 10:10:15;;;;;;;;;;;;;;;;;;5042396;28;20484;-65
2021/04/27 10:12:42;;;;;;;;;;;;;;;;;;5042203;28;19980;-68
2021/04/27 10:15:08;;;;;;;;;;;;;;;;;;5043435;28;19940;-67
2021/04/27 10:17:34;;;;;;;;;;;;;;;;;;5039713;28;20385;-67
2021/04/27 10:20:01;;;;;;;;;;;;;;;;;;5045065;28;19929;-66
2021/04/27 10:22:28;;;;;;;;;;;;;;;;;;5043693;28;20404;-66
2021/04/27 10:24:54;;;;;;;;;;;;;;;;;;5040948;28;19971;-68
2021/04/27 10:27:21;;;;;;;;;;;;;;;;;;5039799;28;20019;-68
2021/04/27 10:29:47;;;;;;;;;;;;;;;;;;5042286;28;19978;-66
2021/04/27 10:32:16;;;;;;;;;;;;;;;;;;5041931;28;20388;-66
2021/04/27 10:34:42;;;;;;;;;;;;;;;;;;5041207;28;19964;-66
2021/04/27 10:37:09;;;;;;;;;;;;;;;;;;5043020;28;20008;-66
2021/04/27 10:39:35;;;;;;;;;;;;;;;;;;5041835;28;20392;-66
2021/04/27 10:42:02;;;;;;;;;;;;;;;;;;5042856;28;19931;-69
2021/04/27 10:44:28;;;;;;;;;;;;;;;;;;5043233;28;20308;-66
2021/04/27 10:46:55;;;;;;;;;;;;;;;;;;5043521;28;20025;-66
2021/04/27 10:49:23;;;;;;;;;;;;;;;;;;5041665;28;19925;-68
2021/04/27 10:51:49;;;;;;;;;;;;;;;;;;5045726;28;20078;-66
2021/04/27 10:54:16;;;;;;;;;;;;;;;;;;5042981;28;20434;-67
2021/04/27 10:56:42;;;;;;;;;;;;;;;;;;5044084;28;20019;-67
2021/04/27 10:59:09;;;;;;;;;;;;;;;;;;5043934;28;19928;-66
2021/04/27 11:01:37;;;;;;;;;;;;;;;;;;5045313;28;20335;-66
2021/04/27 11:04:03;;;;;;;;;;;;;;;;;;5039745;28;20384;-66
2021/04/27 11:06:30;;;;;;;;;;;;;;;;;;5042901;28;19925;-66
2021/04/27 11:08:57;;;;;;;;;;;;;;;;;;5041902;28;19933;-67
2021/04/27 11:11:23;;;;;;;;;;;;;;;;;;5044635;28;20105;-68
2021/04/27 11:13:49;;;;;;;;;;;;;;;;;;5046523;28;19983;-66
2021/04/27 11:16:16;;;;;;;;;;;;;;;;;;5048004;28;20076;-67
2021/04/27 11:18:42;;;;;;;;;;;;;;;;;;5044307;28;19925;-66
2021/04/27 11:21:11;;;;;;;;;;;;;;;;;;5046885;28;19932;-66
2021/04/27 11:23:38;;;;;;;;;;;;;;;;;;5045241;28;19925;-67
2021/04/27 11:26:04;;;;;;;;;;;;;;;;;;5044405;28;19925;-66
2021/04/27 11:28:31;;;;;;;;;;;;;;;;;;5046114;28;20027;-66
2021/04/27 11:30:57;;;;;;;;;;;;;;;;;;5046070;28;19939;-66
2021/04/27 11:33:24;;;;;;;;;;;;;;;;;;5044474;28;19931;-66
2021/04/27 11:35:51;;;;;;;;;;;;;;;;;;5047754;28;19925;-66
2021/04/27 11:38:18;;;;;;;;;;;;;;;;;;5047307;28;20400;-66
2021/04/27 11:40:44;;;;;;;;;;;;;;;;;;5050030;28;19968;-67
2021/04/27 11:43:11;;;;;;;;;;;;;;;;;;5052951;28;19925;-66
2021/04/27 11:45:38;;;;;;;;;;;;;;;;;;5048332;28;19931;-66
2021/04/27 11:48:04;;;;;;;;;;;;;;;;;;5049557;28;20012;-66
2021/04/27 11:50:31;;;;;;;;;;;;;;;;;;5049279;28;19925;-66
2021/04/27 11:53:01;;;;;;;;;;;;;;;;;;5050886;28;20368;-67
2021/04/27 11:55:27;;;;;;;;;;;;;;;;;;5048758;28;20307;-66
2021/04/27 11:57:54;;;;;;;;;;;;;;;;;;5048180;28;19975;-65
2021/04/27 12:00:21;;;;;;;;;;;;;;;;;;5050050;28;19986;-67
2021/04/27 12:02:47;;;;;;;;;;;;;;;;;;5048666;28;19932;-67
2021/04/27 12:05:14;;;;;;;;;;;;;;;;;;5050263;28;20020;-66
2021/04/27 12:07:40;;;;;;;;;;;;;;;;;;5044406;28;19925;-65
2021/04/27 12:10:07;;;;;;;;;;;;;;;;;;5048911;28;20011;-64
2021/04/27 12:12:34;;;;;;;;;;;;;;;;;;5052136;28;20389;-67
2021/04/27 12:15:01;;;;;;;;;;;;;;;;;;5046463;28;21083;-65
2021/04/27 12:17:27;;;;;;;;;;;;;;;;;;5042752;28;19963;-65
2021/04/27 12:19:54;;;;;;;;;;;;;;;;;;5046786;28;19947;-65
2021/04/27 12:22:20;;;;;;;;;;;;;;;;;;5050830;28;19987;-65
2021/04/27 12:24:47;;;;;;;;;;;;;;;;;;5048633;28;19925;-65
2021/04/27 12:27:13;;;;;;;;;;;;;;;;;;5043867;28;20031;-65
2021/04/27 12:29:40;;;;;;;;;;;;;;;;;;5044396;28;19925;-67
2021/04/27 12:32:06;;;;;;;;;;;;;;;;;;5045360;28;19927;-65
2021/04/27 12:34:33;;;;;;;;;;;;;;;;;;5046255;28;19936;-67
2021/04/27 12:36:59;;;;;;;;;;;;;;;;;;5043162;28;19936;-67
2021/04/27 12:39:26;;;;;;;;;;;;;;;;;;5044829;28;19984;-68
2021/04/27 12:41:53;;;;;;;;;;;;;;;;;;5048831;28;20396;-67
2021/04/27 12:44:19;;;;;;;;;;;;;;;;;;5043621;28;20308;-68
2021/04/27 12:46:46;;;;;;;;;;;;;;;;;;5047628;28;20657;-67
2021/04/27 12:49:12;;;;;;;;;;;;;;;;;;5044649;28;20488;-67
2021/04/27 12:51:39;;;;;;;;;;;;;;;;;;5047509;28;20015;-67
2021/04/27 12:54:05;;;;;;;;;;;;;;;;;;5045651;28;20023;-67
2021/04/27 12:56:32;;;;;;;;;;;;;;;;;;5032073;28;20019;-68
2021/04/27 12:58:58;;;;;;;;;;;;;;;;;;5039476;28;20437;-67
2021/04/27 13:01:25;;;;;;;;;;;;;;;;;;5042278;28;19925;-67
2021/04/27 13:03:56;;;;;;;;;;;;;;;;;;5046514;28;19947;-66
2021/04/27 13:06:22;;;;;;;;;;;;;;;;;;5039421;28;19933;-66
2021/04/27 13:08:49;;;;;;;;;;;;;;;;;;5045447;28;20260;-67
2021/04/27 13:11:15;;;;;;;;;;;;;;;;;;5052259;28;19939;-66
2021/04/27 13:13:45;;;;;;;;;;;;;;;;;;5052248;28;20120;-65
2021/04/27 13:16:12;;;;;;;;;;;;;;;;;;5047155;28;19968;-65
2021/04/27 13:18:38;;;;;;;;;;;;;;;;;;5044558;28;19924;-65
2021/04/27 13:21:05;;;;;;;;;;;;;;;;;;5053614;28;20353;-66
2021/04/27 13:23:31;;;;;;;;;;;;;;;;;;5062037;28;19935;-66
2021/04/27 13:25:58;;;;;;;;;;;;;;;;;;5057392;28;19970;-65
2021/04/27 13:28:25;;;;;;;;;;;;;;;;;;5043911;28;19925;-66
2021/04/27 13:30:51;;;;;;;;;;;;;;;;;;5054140;28;19924;-65
2021/04/27 13:33:18;;;;;;;;;;;;;;;;;;5066652;28;19932;-65
2021/04/27 13:35:46;;;;;;;;;;;;;;;;;;5065712;28;19960;-67
2021/04/27 13:38:13;;;;;;;;;;;;;;;;;;5051397;28;19964;-66
2021/04/27 13:40:39;;;;;;;;;;;;;;;;;;5042816;28;20023;-66
2021/04/27 13:43:05;;;;;;;;;;;;;;;;;;5046388;28;19925;-65
2021/04/27 13:45:32;;;;;;;;;;;;;;;;;;5047134;28;19924;-67
2021/04/27 13:48:00;;;;;;;;;;;;;;;;;;5044182;28;19928;-66
2021/04/27 13:50:27;;;;;;;;;;;;;;;;;;5044780;28;20023;-66
2021/04/27 13:52:53;;;;;;;;;;;;;;;;;;5046617;28;19959;-65
2021/04/27 13:55:20;;;;;;;;;;;;;;;;;;5045214;28;19929;-67
2021/04/27 13:57:46;;;;;;;;;;;;;;;;;;5038846;28;20127;-66
2021/04/27 14:00:13;;;;;;;;;;;;;;;;;;5047123;28;20020;-66
2021/04/27 14:02:39;;;;;;;;;;;;;;;;;;5047992;28;19956;-64
2021/04/27 14:05:06;;;;;;;;;;;;;;;;;;5046874;28;19933;-65
2021/04/27 14:07:32;;;;;;;;;;;;;;;;;;5036879;28;19925;-65
2021/04/27 14:09:59;;;;;;;;;;;;;;;;;;5040577;28;19972;-68
2021/04/27 14:12:26;;;;;;;;;;;;;;;;;;5045128;28;20304;-64
2021/04/27 14:14:53;;;;;;;;;;;;;;;;;;5043698;28;19929;-66
2021/04/27 14:17:19;;;;;;;;;;;;;;;;;;5042291;28;19925;-66
2021/04/27 14:19:46;;;;;;;;;;;;;;;;;;5042166;28;20335;-66
2021/04/27 14:22:12;;;;;;;;;;;;;;;;;;5044821;28;19929;-68
2021/04/27 14:24:39;;;;;;;;;;;;;;;;;;5048774;28;19939;-68
2021/04/27 14:27:05;;;;;;;;;;;;;;;;;;5044943;28;19932;-68
2021/04/27 14:29:32;;;;;;;;;;;;;;;;;;5046844;28;19932;-67
2021/04/27 14:31:58;;;;;;;;;;;;;;;;;;5044849;28;19931;-68
2021/04/27 14:34:28;;;;;;;;;;;;;;;;;;5046729;28;19970;-67
2021/04/27 14:36:54;;;;;;;;;;;;;;;;;;5042867;28;19929;-68
2021/04/27 14:39:21;;;;;;;;;;;;;;;;;;5046797;28;19932;-67
2021/04/27 14:41:47;;;;;;;;;;;;;;;;;;5046193;28;19935;-68
2021/04/27 14:44:14;;;;;;;;;;;;;;;;;;5046154;28;20028;-67
2021/04/27 14:46:40;;;;;;;;;;;;;;;;;;5047160;28;20023;-68
2021/04/27 14:49:07;;;;;;;;;;;;;;;;;;5044520;28;19931;-67
2021/04/27 14:51:33;;;;;;;;;;;;;;;;;;5051521;28;20300;-66
2021/04/27 14:54:00;;;;;;;;;;;;;;;;;;5052210;28;20044;-68
2021/04/27 14:56:26;;;;;;;;;;;;;;;;;;5051114;28;20019;-66
2021/04/27 14:58:53;;;;;;;;;;;;;;;;;;5043023;28;20019;-66
2021/04/27 15:01:19;;;;;;;;;;;;;;;;;;5046745;28;19925;-67
2021/04/27 15:03:46;;;;;;;;;;;;;;;;;;5034207;28;19929;-67
2021/04/27 15:06:12;;;;;;;;;;;;;;;;;;5047173;28;19925;-67
2021/04/27 15:08:39;;;;;;;;;;;;;;;;;;5043449;28;19924;-65
2021/04/27 15:11:05;;;;;;;;;;;;;;;;;;5049506;28;19932;-67
2021/04/27 15:13:32;;;;;;;;;;;;;;;;;;5048922;28;20015;-67
2021/04/27 15:15:58;;;;;;;;;;;;;;;;;;5050072;28;20415;-68
2021/04/27 15:18:27;;;;;;;;;;;;;;;;;;5047284;28;20403;-66
2021/04/27 15:20:53;;;;;;;;;;;;;;;;;;5050639;28;20026;-67
2021/04/27 15:23:20;;;;;;;;;;;;;;;;;;5050707;28;20078;-66
2021/04/27 15:25:46;;;;;;;;;;;;;;;;;;5047127;28;19925;-67
2021/04/27 15:28:13;;;;;;;;;;;;;;;;;;5046127;28;19958;-67
2021/04/27 15:30:42;;;;;;;;;;;;;;;;;;5047311;28;19924;-67
2021/04/27 15:33:08;;;;;;;;;;;;;;;;;;5047969;28;19928;-67
2021/04/27 15:35:35;;;;;;;;;;;;;;;;;;5049544;28;19929;-67
2021/04/27 15:38:01;;;;;;;;;;;;;;;;;;5045476;28;20012;-67
2021/04/27 15:40:28;;;;;;;;;;;;;;;;;;5045500;28;19925;-67
2021/04/27 15:42:54;;;;;;;;;;;;;;;;;;5050293;28;19947;-67
2021/04/27 15:45:21;;;;;;;;;;;;;;;;;;5045221;28;20020;-66
2021/04/27 15:47:48;;;;;;;;;;;;;;;;;;5041625;28;19929;-66
2021/04/27 15:50:14;;;;;;;;;;;;;;;;;;5044254;28;19924;-66
2021/04/27 15:52:41;;;;;;;;;;;;;;;;;;5046003;28;20007;-67
2021/04/27 15:55:07;;;;;;;;;;;;;;;;;;5044956;28;20324;-67
2021/04/27 15:57:34;;;;;;;;;;;;;;;;;;5040424;28;19931;-67
2021/04/27 16:00:00;;;;;;;;;;;;;;;;;;5044288;28;20036;-67
2021/04/27 16:02:27;;;;;;;;;;;;;;;;;;5047572;28;20405;-66
2021/04/27 16:04:53;;;;;;;;;;;;;;;;;;5044887;28;20035;-66
2021/04/27 16:07:20;;;;;;;;;;;;;;;;;;5048278;28;19971;-67
2021/04/27 16:09:46;;;;;;;;;;;;;;;;;;5024714;28;19928;-68
2021/04/27 16:12:13;;;;;;;;;;;;;;;;;;5047131;28;19929;-67
2021/04/27 16:14:39;;;;;;;;;;;;;;;;;;5027384;28;19988;-67
2021/04/27 16:17:06;;;;;;;;;;;;;;;;;;5042375;28;20042;-67
2021/04/27 16:19:32;;;;;;;;;;;;;;;;;;5043516;28;19939;-66
2021/04/27 16:22:00;;;;;;;;;;;;;;;;;;5047919;28;19925;-67
2021/04/27 16:24:27;;;;;;;;;;;;;;;;;;5045255;28;19931;-66
2021/04/27 16:26:53;;;;;;;;;;;;;;;;;;5046200;28;20051;-67
2021/04/27 16:29:20;;;;;;;;;;;;;;;;;;5044803;28;20284;-66
2021/04/27 16:31:46;;;;;;;;;;;;;;;;;;5027635;28;19925;-66
2021/04/27 16:34:13;;;;;;;;;;;;;;;;;;5045754;28;20292;-65
2021/04/27 16:36:39;;;;;;;;;;;;;;;;;;5041679;28;20714;-67
2021/04/27 16:39:06;;;;;;;;;;;;;;;;;;5044379;28;20011;-66
2021/04/27 16:41:32;;;;;;;;;;;;;;;;;;5044986;28;19928;-67